createdAt,value
2019-02-28T00:01:35.678Z,99836.27
2019-02-28T00:04:07.029Z,99831.30
2019-02-28T00:06:37.978Z,99832.64
2019-02-28T00:09:11.169Z,99830.63
2019-02-28T00:11:42.209Z,99827.45
2019-02-28T00:14:13.210Z,99826.63
2019-02-28T00:16:44.082Z,99827.45
2019-02-28T00:19:14.977Z,99832.11
2019-02-28T00:21:45.738Z,99825.41
2019-02-28T00:24:16.835Z,99821.28
2019-02-28T00:26:48.012Z,99822.44
2019-02-28T00:29:19.958Z,99816.92
2019-02-28T00:31:50.848Z,99811.59
2019-02-28T00:34:21.801Z,99813.93
2019-02-28T00:36:53.421Z,99817.25
2019-02-28T00:39:25.191Z,99811.09
2019-02-28T00:41:56.034Z,99806.09
2019-02-28T00:44:30.413Z,99804.25
2019-02-28T00:46:59.326Z,99796.59
2019-02-28T00:49:30.218Z,99792.27
2019-02-28T00:52:02.198Z,99794.92
2019-02-28T00:54:33.440Z,99799.06
2019-02-28T00:57:04.321Z,99791.89
2019-02-28T00:59:35.305Z,99791.70
2019-02-28T01:02:06.187Z,99785.50
2019-02-28T01:04:37.074Z,99787.00
2019-02-28T01:07:08.065Z,99785.16
2019-02-28T01:09:39.072Z,99786.51
2019-02-28T01:12:09.958Z,99789.16
2019-02-28T01:14:40.981Z,99788.98
2019-02-28T01:17:11.737Z,99774.66
2019-02-28T01:19:42.610Z,99773.14
2019-02-28T01:22:13.510Z,99775.20
2019-02-28T01:24:44.518Z,99768.55
2019-02-28T01:27:17.395Z,99780.74
2019-02-28T01:29:47.876Z,99779.44
2019-02-28T01:32:18.880Z,99776.27
2019-02-28T01:34:49.790Z,99775.09
2019-02-28T01:37:21.173Z,99765.09
2019-02-28T01:39:53.165Z,99765.63
2019-02-28T01:42:23.971Z,99757.83
2019-02-28T01:44:54.957Z,99762.80
2019-02-28T01:47:25.766Z,99757.80
2019-02-28T01:49:57.710Z,99750.81
2019-02-28T01:52:29.421Z,99752.50
2019-02-28T01:55:00.317Z,99750.83
2019-02-28T01:57:31.188Z,99750.44
2019-02-28T02:00:02.083Z,99742.59
2019-02-28T02:02:33.462Z,99734.88
2019-02-28T02:05:04.567Z,99735.55
2019-02-28T02:07:35.785Z,99724.56
2019-02-28T02:10:11.846Z,99718.48
2019-02-28T02:12:42.649Z,99716.17
2019-02-28T02:15:16.910Z,99711.81
2019-02-28T02:17:46.082Z,99715.69
2019-02-28T02:20:16.976Z,99706.91
2019-02-28T02:22:47.960Z,99705.25
2019-02-28T02:25:18.755Z,99700.84
2019-02-28T02:27:52.778Z,99700.67
2019-02-28T02:30:23.307Z,99699.88
2019-02-28T02:32:54.160Z,99699.79
2019-02-28T02:35:25.212Z,99703.05
2019-02-28T02:37:56.051Z,99703.62
2019-02-28T02:40:26.996Z,99690.14
2019-02-28T02:42:57.779Z,99696.14
2019-02-28T02:45:28.690Z,99694.45
2019-02-28T02:47:59.455Z,99688.17
2019-02-28T02:50:35.904Z,99676.06
2019-02-28T02:53:05.598Z,99677.24
2019-02-28T02:55:35.905Z,99676.44
2019-02-28T02:58:06.781Z,99682.84
2019-02-28T03:00:37.855Z,99674.52
2019-02-28T03:03:08.752Z,99683.15
2019-02-28T03:05:39.735Z,99681.14
2019-02-28T03:08:10.530Z,99679.45
2019-02-28T03:10:41.535Z,99679.47
2019-02-28T03:13:12.302Z,99685.72
2019-02-28T03:15:43.481Z,99680.73
2019-02-28T03:18:14.304Z,99684.20
2019-02-28T03:20:45.380Z,99681.87
2019-02-28T03:23:16.381Z,99677.51
2019-02-28T03:25:47.479Z,99670.67
2019-02-28T03:28:18.361Z,99673.03
2019-02-28T03:30:50.278Z,99673.33
2019-02-28T03:33:27.217Z,99667.98
2019-02-28T03:35:53.931Z,99673.27
2019-02-28T03:38:24.769Z,99670.59
2019-02-28T03:40:55.657Z,99666.27
2019-02-28T03:43:26.444Z,99669.47
2019-02-28T03:45:57.572Z,99669.83
2019-02-28T03:48:34.645Z,99667.30
2019-02-28T03:51:01.033Z,99665.81
2019-02-28T03:53:31.886Z,99663.99
2019-02-28T03:56:02.827Z,99667.98
2019-02-28T03:58:41.707Z,99672.63
2019-02-28T04:01:09.416Z,99669.42
2019-02-28T04:03:39.318Z,99663.85
2019-02-28T04:06:10.132Z,99656.78
2019-02-28T04:08:41.016Z,99654.81
2019-02-28T04:11:12.011Z,99655.52
2019-02-28T04:13:42.877Z,99657.05
2019-02-28T04:16:13.573Z,99663.20
2019-02-28T04:18:46.622Z,99668.52
2019-02-28T04:21:17.188Z,99669.69
2019-02-28T04:23:47.984Z,99669.71
2019-02-28T04:26:18.765Z,99673.89
2019-02-28T04:28:53.248Z,99673.02
2019-02-28T04:31:22.894Z,99669.81
2019-02-28T04:33:53.863Z,99674.09
2019-02-28T04:36:24.756Z,99670.75
2019-02-28T04:38:55.705Z,99667.73
2019-02-28T04:41:26.653Z,99666.86
2019-02-28T04:43:57.639Z,99664.00
2019-02-28T04:46:31.838Z,99661.70
2019-02-28T04:49:01.030Z,99667.02
2019-02-28T04:51:31.820Z,99668.06
2019-02-28T04:54:02.708Z,99673.86
2019-02-28T04:56:33.802Z,99674.34
2019-02-28T04:59:04.794Z,99675.31
2019-02-28T05:01:35.740Z,99673.47
2019-02-28T05:04:06.401Z,99671.77
2019-02-28T05:06:37.351Z,99670.61
2019-02-28T05:09:10.758Z,99673.34
2019-02-28T05:11:41.267Z,99674.70
2019-02-28T05:14:12.166Z,99671.92
2019-02-28T05:16:47.187Z,99669.78
2019-02-28T05:19:15.990Z,99671.14
2019-02-28T05:21:46.783Z,99678.59
2019-02-28T05:24:17.656Z,99679.48
2019-02-28T05:26:48.438Z,99673.48
2019-02-28T05:29:19.278Z,99673.98
2019-02-28T05:31:50.157Z,99667.33
2019-02-28T05:34:21.307Z,99680.65
2019-02-28T05:36:52.384Z,99682.97
2019-02-28T05:39:23.138Z,99682.95
2019-02-28T05:41:54.118Z,99683.41
2019-02-28T05:44:25.116Z,99682.05
2019-02-28T05:46:58.069Z,99682.84
2019-02-28T05:49:28.674Z,99682.50
2019-02-28T05:51:59.883Z,99684.34
2019-02-28T05:54:30.716Z,99687.76
2019-02-28T05:57:04.716Z,99688.95
2019-02-28T05:59:34.139Z,99692.95
2019-02-28T06:02:05.684Z,99696.63
2019-02-28T06:04:37.139Z,99698.31
2019-02-28T06:07:09.474Z,99697.44
2019-02-28T06:09:40.451Z,99693.45
2019-02-28T06:12:11.435Z,99706.66
2019-02-28T06:14:42.349Z,99707.36
2019-02-28T06:17:13.235Z,99704.85
2019-02-28T06:19:44.362Z,99708.98
2019-02-28T06:22:15.517Z,99714.94
2019-02-28T06:24:46.291Z,99712.84
2019-02-28T06:27:17.291Z,99713.69
2019-02-28T06:29:48.274Z,99714.97
2019-02-28T06:32:23.211Z,99712.17
2019-02-28T06:34:51.767Z,99716.45
2019-02-28T06:37:24.020Z,99713.08
2019-02-28T06:39:58.645Z,99711.37
2019-02-28T06:42:28.997Z,99708.45
2019-02-28T06:45:02.530Z,99702.38
2019-02-28T06:47:32.482Z,99704.23
2019-02-28T06:50:03.044Z,99706.91
2019-02-28T06:52:33.654Z,99707.62
2019-02-28T06:55:04.617Z,99709.97
2019-02-28T06:57:35.203Z,99712.48
2019-02-28T07:00:06.651Z,99710.95
2019-02-28T07:02:37.226Z,99718.48
2019-02-28T07:05:08.407Z,99727.20
2019-02-28T07:07:39.206Z,99740.34
2019-02-28T07:10:12.691Z,99735.67
2019-02-28T07:12:44.766Z,99743.42
2019-02-28T07:15:16.254Z,99743.05
2019-02-28T07:17:47.602Z,99754.84
2019-02-28T07:20:18.746Z,99759.97
2019-02-28T07:22:54.628Z,99751.17
2019-02-28T07:25:23.080Z,99747.95
2019-02-28T07:27:54.037Z,99756.58
2019-02-28T07:30:24.930Z,99756.78
2019-02-28T07:32:55.897Z,99742.45
2019-02-28T07:35:32.673Z,99748.41
2019-02-28T07:38:00.397Z,99744.81
2019-02-28T07:40:33.211Z,99741.23
2019-02-28T07:43:03.865Z,99751.95
2019-02-28T07:45:34.768Z,99741.53
2019-02-28T07:48:05.644Z,99727.45
2019-02-28T07:50:37.447Z,99723.59
2019-02-28T07:53:09.733Z,99730.16
2019-02-28T07:55:40.759Z,99741.64
2019-02-28T07:58:11.816Z,99747.26
2019-02-28T08:00:42.840Z,99734.25
2019-02-28T08:03:13.687Z,99752.78
2019-02-28T08:05:44.860Z,99750.05
2019-02-28T08:08:15.752Z,99752.49
2019-02-28T08:10:47.929Z,99742.83
2019-02-28T08:13:19.480Z,99738.56
2019-02-28T08:15:53.363Z,99736.93
2019-02-28T08:18:23.209Z,99738.68
2019-02-28T08:20:54.101Z,99746.59
2019-02-28T08:23:24.887Z,99733.70
2019-02-28T08:25:55.863Z,99738.94
2019-02-28T08:28:29.592Z,99738.55
2019-02-28T08:31:01.629Z,99739.23
2019-02-28T08:33:33.354Z,99749.88
2019-02-28T08:36:08.472Z,99761.73
2019-02-28T08:38:37.062Z,99778.59
2019-02-28T08:41:08.060Z,99766.44
2019-02-28T08:43:38.953Z,99773.03
2019-02-28T08:46:12.114Z,99780.81
2019-02-28T08:48:42.366Z,99780.05
2019-02-28T08:51:13.352Z,99779.37
2019-02-28T08:53:44.221Z,99782.50
2019-02-28T08:56:15.581Z,99777.84
2019-02-28T08:58:46.424Z,99784.88
2019-02-28T09:01:17.502Z,99780.08
2019-02-28T09:03:50.229Z,99781.91
2019-02-28T09:06:22.240Z,99778.77
2019-02-28T09:08:53.147Z,99787.86
2019-02-28T09:11:24.063Z,99775.84
2019-02-28T09:13:55.003Z,99785.92
2019-02-28T09:16:25.892Z,99792.70
2019-02-28T09:18:57.482Z,99801.05
2019-02-28T09:21:29.200Z,99799.56
2019-02-28T09:24:00.120Z,99804.28
2019-02-28T09:26:31.242Z,99783.83
2019-02-28T09:29:03.820Z,99788.95
2019-02-28T09:31:38.655Z,99777.36
2019-02-28T09:34:09.434Z,99780.49
2019-02-28T09:36:40.527Z,99781.71
2019-02-28T09:39:11.583Z,99767.95
2019-02-28T09:41:42.417Z,99768.41
2019-02-28T09:44:13.289Z,99767.38
2019-02-28T09:46:44.187Z,99777.86
2019-02-28T09:49:15.163Z,99765.37
2019-02-28T09:51:46.048Z,99767.90
2019-02-28T09:54:16.860Z,99758.93
2019-02-28T09:56:47.740Z,99770.88
2019-02-28T09:59:18.610Z,99762.02
2019-02-28T10:01:49.411Z,99773.14
2019-02-28T10:04:21.003Z,99766.00
2019-02-28T10:06:52.267Z,99766.29
2019-02-28T10:09:24.220Z,99762.86
2019-02-28T10:11:55.111Z,99756.89
2019-02-28T10:14:28.856Z,99754.67
2019-02-28T10:16:58.921Z,99756.80
2019-02-28T10:19:29.915Z,99760.99
2019-02-28T10:22:00.800Z,99765.76
2019-02-28T10:24:32.364Z,99760.27
2019-02-28T10:27:03.565Z,99760.99
2019-02-28T10:29:34.608Z,99742.92
2019-02-28T10:32:06.151Z,99737.59
2019-02-28T10:34:38.007Z,99730.62
2019-02-28T10:37:08.993Z,99730.81
2019-02-28T10:39:40.316Z,99731.08
2019-02-28T10:42:12.520Z,99725.80
2019-02-28T10:44:43.582Z,99724.41
2019-02-28T10:47:14.489Z,99725.03
2019-02-28T10:49:45.491Z,99719.20
2019-02-28T10:52:16.320Z,99733.90
2019-02-28T10:54:48.662Z,99725.86
2019-02-28T10:57:19.732Z,99724.04
2019-02-28T10:59:50.608Z,99724.04
2019-02-28T11:02:21.792Z,99706.28
2019-02-28T11:04:52.607Z,99718.22
2019-02-28T11:07:23.791Z,99716.14
2019-02-28T11:09:55.560Z,99718.13
2019-02-28T11:12:27.303Z,99715.98
2019-02-28T11:14:58.202Z,99721.22
2019-02-28T11:17:30.419Z,99718.22
2019-02-28T11:20:01.886Z,99713.94
2019-02-28T11:22:32.739Z,99717.76
2019-02-28T11:25:03.724Z,99715.45
2019-02-28T11:27:35.014Z,99714.47
2019-02-28T11:30:07.394Z,99712.58
2019-02-28T11:32:40.082Z,99711.72
2019-02-28T11:35:12.871Z,99711.35
2019-02-28T11:37:46.179Z,99717.28
2019-02-28T11:40:19.028Z,99718.30
2019-02-28T11:42:50.082Z,99702.38
2019-02-28T11:45:25.370Z,99711.45
2019-02-28T11:47:56.275Z,99711.92
2019-02-28T11:50:27.238Z,99699.33
2019-02-28T11:53:03.247Z,99701.59
2019-02-28T11:55:30.692Z,99701.25
2019-02-28T11:58:01.882Z,99690.88
2019-02-28T12:00:35.831Z,99690.71
2019-02-28T12:03:06.604Z,99694.20
2019-02-28T12:05:37.917Z,99696.98
2019-02-28T12:08:10.288Z,99688.00
2019-02-28T12:10:41.319Z,99690.59
2019-02-28T12:13:12.314Z,99690.86
2019-02-28T12:15:43.204Z,99688.13
2019-02-28T12:18:14.084Z,99689.28
2019-02-28T12:20:45.983Z,99675.00
2019-02-28T12:23:16.795Z,99676.44
2019-02-28T12:25:47.691Z,99680.69
2019-02-28T12:28:18.567Z,99673.53
2019-02-28T12:30:49.558Z,99670.53
2019-02-28T12:33:23.143Z,99664.17
2019-02-28T12:35:54.740Z,99664.47
2019-02-28T12:38:29.044Z,99656.05
2019-02-28T12:40:58.871Z,99657.28
2019-02-28T12:43:29.885Z,99657.28
2019-02-28T12:46:00.869Z,99650.56
2019-02-28T12:48:31.843Z,99652.00
2019-02-28T12:51:05.319Z,99645.01
2019-02-28T12:53:35.564Z,99640.73
2019-02-28T12:56:06.372Z,99637.72
2019-02-28T12:58:39.182Z,99639.31
2019-02-28T13:01:10.244Z,99624.66
2019-02-28T13:03:41.097Z,99624.66
2019-02-28T13:06:12.047Z,99619.54
2019-02-28T13:08:42.965Z,99621.78
2019-02-28T13:11:14.004Z,99620.35
2019-02-28T13:13:44.735Z,99613.55
2019-02-28T13:16:17.437Z,99608.39
2019-02-28T13:18:48.352Z,99601.00
2019-02-28T13:21:19.139Z,99601.59
2019-02-28T13:23:50.117Z,99599.08
2019-02-28T13:26:20.904Z,99592.32
2019-02-28T13:28:54.569Z,99605.39
2019-02-28T13:31:25.592Z,99593.05
2019-02-28T13:33:57.259Z,99583.88
2019-02-28T13:36:28.136Z,99578.95
2019-02-28T13:39:01.663Z,99576.58
2019-02-28T13:41:34.512Z,99573.63
2019-02-28T13:44:05.628Z,99573.54
2019-02-28T13:46:36.399Z,99569.80
2019-02-28T13:49:08.559Z,99576.91
2019-02-28T13:51:42.122Z,99583.16
2019-02-28T13:54:12.564Z,99584.52
2019-02-28T13:56:44.362Z,99573.50
2019-02-28T13:59:15.262Z,99568.58
2019-02-28T14:01:46.040Z,99560.72
2019-02-28T14:04:19.408Z,99555.30
2019-02-28T14:06:52.449Z,99549.52
2019-02-28T14:09:24.343Z,99548.94
2019-02-28T14:11:55.204Z,99542.89
2019-02-28T14:14:26.094Z,99537.74
2019-02-28T14:16:58.324Z,99535.55
2019-02-28T14:19:29.519Z,99532.85
2019-02-28T14:22:00.586Z,99533.11
2019-02-28T14:24:32.064Z,99525.47
2019-02-28T14:27:03.004Z,99533.69
2019-02-28T14:29:33.870Z,99534.17
2019-02-28T14:32:07.511Z,99531.43
2019-02-28T14:34:37.757Z,99529.30
2019-02-28T14:37:08.596Z,99533.65
2019-02-28T14:39:42.600Z,99534.23
2019-02-28T14:42:13.517Z,99528.46
2019-02-28T14:44:44.503Z,99539.39
2019-02-28T14:47:15.513Z,99526.73
2019-02-28T14:49:46.404Z,99537.35
2019-02-28T14:52:17.299Z,99537.89
2019-02-28T14:54:48.091Z,99548.61
2019-02-28T14:57:18.866Z,99552.05
2019-02-28T14:59:50.055Z,99557.75
2019-02-28T15:02:20.930Z,99562.80
2019-02-28T15:04:52.034Z,99560.27
2019-02-28T15:07:22.822Z,99556.94
2019-02-28T15:09:54.534Z,99561.30
2019-02-28T15:12:25.298Z,99555.28
2019-02-28T15:14:56.757Z,99562.60
2019-02-28T15:17:27.707Z,99561.38
2019-02-28T15:19:58.873Z,99558.12
2019-02-28T15:22:29.687Z,99568.48
2019-02-28T15:25:00.670Z,99573.41
2019-02-28T15:27:31.561Z,99578.09
2019-02-28T15:30:02.634Z,99572.50
2019-02-28T15:32:33.323Z,99588.51
2019-02-28T15:35:04.511Z,99588.64
2019-02-28T15:37:35.522Z,99588.97
2019-02-28T15:40:07.691Z,99603.89
2019-02-28T15:42:39.621Z,99604.87
2019-02-28T15:45:11.648Z,99604.72
2019-02-28T15:47:42.740Z,99598.09
2019-02-28T15:50:16.395Z,99580.22
2019-02-28T15:52:48.108Z,99585.00
2019-02-28T15:55:19.279Z,99578.62
2019-02-28T15:57:50.094Z,99585.17
2019-02-28T16:00:28.385Z,99587.08
2019-02-28T16:02:59.425Z,99582.64
2019-02-28T16:05:30.575Z,99581.59
2019-02-28T16:08:01.517Z,99579.86
2019-02-28T16:10:32.969Z,99581.53
2019-02-28T16:13:05.380Z,99576.81
2019-02-28T16:15:36.587Z,99582.42
2019-02-28T16:18:08.757Z,99574.08
2019-02-28T16:20:40.307Z,99576.66
2019-02-28T16:23:11.379Z,99575.89
2019-02-28T16:25:42.497Z,99574.83
2019-02-28T16:28:13.511Z,99574.20
2019-02-28T16:30:44.383Z,99569.53
2019-02-28T16:33:15.393Z,99570.78
2019-02-28T16:35:46.664Z,99575.82
2019-02-28T16:38:18.832Z,99575.77
2019-02-28T16:40:50.020Z,99579.30
2019-02-28T16:43:21.684Z,99578.45
2019-02-28T16:45:52.385Z,99580.39
2019-02-28T16:48:23.351Z,99583.11
2019-02-28T16:50:56.764Z,99592.45
2019-02-28T16:53:26.782Z,99592.45
2019-02-28T16:55:57.642Z,99597.65
2019-02-28T16:58:28.624Z,99593.24
2019-02-28T17:00:59.603Z,99593.70
2019-02-28T17:03:30.459Z,99597.69
2019-02-28T17:06:02.267Z,99600.47
2019-02-28T17:08:37.281Z,99599.31
2019-02-28T17:11:08.345Z,99604.90
2019-02-28T17:14:00.054Z,99605.16
2019-02-28T17:16:42.537Z,99607.67
2019-02-28T17:19:13.495Z,99611.05
2019-02-28T17:21:44.375Z,99621.59
2019-02-28T17:24:15.263Z,99622.25
2019-02-28T17:27:11.382Z,99621.52
2019-02-28T17:29:49.486Z,99626.25
2019-02-28T17:32:20.960Z,99635.91
2019-02-28T17:34:51.877Z,99641.75
2019-02-28T17:37:25.859Z,99642.83
2019-02-28T17:39:55.487Z,99641.63
2019-02-28T17:42:26.184Z,99652.38
2019-02-28T17:45:16.313Z,99653.20
2019-02-28T17:48:34.226Z,99655.84
2019-02-28T17:51:11.303Z,99665.05
2019-02-28T17:54:03.846Z,99673.58
2019-02-28T17:57:20.393Z,99677.45
2019-02-28T18:00:35.158Z,99687.07
2019-02-28T18:03:55.453Z,99688.91
2019-02-28T18:07:11.114Z,99696.76
2019-02-28T18:10:24.245Z,99701.69
2019-02-28T18:13:21.154Z,99709.53
2019-02-28T18:16:36.470Z,99704.25
2019-02-28T18:19:44.141Z,99710.13
2019-02-28T18:22:38.382Z,99717.96
2019-02-28T18:25:59.084Z,99723.39
2019-02-28T18:29:18.974Z,99728.28
2019-02-28T18:31:49.898Z,99731.38
2019-02-28T18:34:26.995Z,99744.73
2019-02-28T18:36:57.928Z,99747.30
2019-02-28T18:39:28.903Z,99742.64
2019-02-28T18:41:59.837Z,99754.34
2019-02-28T18:44:30.813Z,99759.52
2019-02-28T18:47:04.175Z,99767.25
2019-02-28T18:49:36.355Z,99767.25
2019-02-28T18:52:07.257Z,99760.45
2019-02-28T18:54:39.388Z,99772.37
2019-02-28T18:57:10.329Z,99768.39
2019-02-28T18:59:41.213Z,99773.09
2019-02-28T19:02:12.130Z,99775.12
2019-02-28T19:04:43.489Z,99773.41
2019-02-28T19:07:14.431Z,99767.14
2019-02-28T19:09:45.411Z,99766.50
2019-02-28T19:12:16.288Z,99763.45
2019-02-28T19:14:47.178Z,99757.17
2019-02-28T19:17:18.168Z,99767.95
2019-02-28T19:19:53.774Z,99760.68
2019-02-28T19:22:24.670Z,99758.48
2019-02-28T19:24:55.866Z,99754.86
2019-02-28T19:27:26.636Z,99755.53
2019-02-28T19:29:57.725Z,99748.03
2019-02-28T19:32:28.615Z,99743.63
2019-02-28T19:34:59.498Z,99750.09
2019-02-28T19:37:30.331Z,99748.23
2019-02-28T19:40:01.234Z,99740.86
2019-02-28T19:42:33.565Z,99739.64
2019-02-28T19:45:04.839Z,99745.95
2019-02-28T19:47:35.715Z,99739.48
2019-02-28T19:50:08.731Z,99730.02
2019-02-28T19:52:39.600Z,99715.07
2019-02-28T19:55:12.139Z,99719.09
2019-02-28T19:57:43.020Z,99716.92
2019-02-28T20:00:15.558Z,99730.77
2019-02-28T20:02:46.547Z,99738.15
2019-02-28T20:05:18.018Z,99734.94
2019-02-28T20:07:48.934Z,99749.28
2019-02-28T20:10:20.409Z,99744.48
2019-02-28T20:12:51.264Z,99739.38
2019-02-28T20:15:24.203Z,99720.44
2019-02-28T20:17:55.466Z,99703.97
2019-02-28T20:20:27.447Z,99707.79
2019-02-28T20:22:58.384Z,99717.55
2019-02-28T20:25:29.388Z,99706.14
2019-02-28T20:28:00.338Z,99714.28
2019-02-28T20:30:32.031Z,99701.91
2019-02-28T20:33:03.032Z,99713.22
2019-02-28T20:35:33.997Z,99702.59
2019-02-28T20:38:05.231Z,99701.55
2019-02-28T20:40:36.134Z,99708.71
2019-02-28T20:43:07.287Z,99714.23
2019-02-28T20:45:38.279Z,99714.44
2019-02-28T20:48:09.177Z,99712.09
2019-02-28T20:50:41.498Z,99690.89
2019-02-28T20:53:12.273Z,99673.12
2019-02-28T20:55:43.278Z,99656.11
2019-02-28T20:58:15.988Z,99662.16
2019-02-28T21:00:48.064Z,99662.30
2019-02-28T21:03:18.990Z,99673.84
2019-02-28T21:05:50.159Z,99681.92
2019-02-28T21:08:21.192Z,99677.30
2019-02-28T21:10:52.065Z,99686.52
2019-02-28T21:13:22.854Z,99687.24
2019-02-28T21:15:53.735Z,99675.33
2019-02-28T21:18:24.848Z,99689.18
2019-02-28T21:20:55.739Z,99703.09
2019-02-28T21:23:26.709Z,99695.41
2019-02-28T21:25:57.544Z,99694.81
2019-02-28T21:28:28.579Z,99691.17
2019-02-28T21:30:59.638Z,99684.52
2019-02-28T21:33:30.519Z,99665.77
2019-02-28T21:36:01.315Z,99657.09
2019-02-28T21:38:32.377Z,99651.08
2019-02-28T21:41:03.291Z,99662.98
2019-02-28T21:43:35.300Z,99662.69
2019-02-28T21:46:06.190Z,99658.02
2019-02-28T21:48:37.177Z,99666.30
2019-02-28T21:51:07.967Z,99668.18
2019-02-28T21:53:38.947Z,99666.83
2019-02-28T21:56:09.735Z,99664.55
2019-02-28T21:58:40.694Z,99665.61
2019-02-28T22:01:11.498Z,99664.88
2019-02-28T22:03:42.489Z,99663.34
2019-02-28T22:06:13.299Z,99656.00
2019-02-28T22:08:44.190Z,99652.99
2019-02-28T22:11:15.050Z,99653.29
2019-02-28T22:13:46.028Z,99643.67
2019-02-28T22:16:16.826Z,99636.10
2019-02-28T22:18:47.914Z,99635.48
2019-02-28T22:21:18.717Z,99630.22
2019-02-28T22:23:49.590Z,99631.56
2019-02-28T22:26:20.394Z,99626.17
2019-02-28T22:28:52.004Z,99634.25
2019-02-28T22:31:45.606Z,99632.91
2019-02-28T22:34:35.497Z,99627.09
2019-02-28T22:37:06.317Z,99622.55
2019-02-28T22:39:37.202Z,99604.42
2019-02-28T22:42:08.102Z,99597.91
2019-02-28T22:44:39.001Z,99596.34
2019-02-28T22:47:09.578Z,99603.39
2019-02-28T22:49:40.467Z,99587.95
2019-02-28T22:52:11.355Z,99581.03
2019-02-28T22:54:42.330Z,99580.31
2019-02-28T22:57:13.231Z,99578.77
2019-02-28T22:59:44.406Z,99577.41
2019-02-28T23:02:15.194Z,99572.84
2019-02-28T23:04:46.559Z,99570.93
2019-02-28T23:07:17.601Z,99568.96
2019-02-28T23:09:48.645Z,99569.80
2019-02-28T23:12:19.569Z,99570.20
2019-02-28T23:14:50.489Z,99571.44
2019-02-28T23:17:21.362Z,99574.97
2019-02-28T23:19:52.189Z,99572.06
2019-02-28T23:22:23.187Z,99571.33
2019-02-28T23:24:53.951Z,99564.38
2019-02-28T23:27:24.840Z,99551.45
2019-02-28T23:30:34.940Z,99555.72
2019-02-28T23:33:12.918Z,99553.94
2019-02-28T23:35:45.610Z,99550.22
2019-02-28T23:38:16.766Z,99554.55
2019-02-28T23:40:47.622Z,99548.77
2019-02-28T23:43:18.509Z,99540.36
2019-02-28T23:45:49.292Z,99528.34
2019-02-28T23:48:20.170Z,99527.91
2019-02-28T23:50:51.058Z,99529.94
2019-02-28T23:53:22.063Z,99520.50
2019-02-28T23:55:52.851Z,99522.26
2019-02-28T23:58:24.126Z,99519.89
